Time;durP1;ratioP1;P1;durP2;ratioP2;P2;SDS_P1;SDS_P2;PMS_P1;PMS_P2;Temp;Humidity;BMP_temperature;BMP_pressure;BME280_temperature;BME280_humidity;BME280_pressure;Samples;Min_cycle;Max_cycle;Signal;HPM_P1;HPM_P2
2021/11/03 00:00:34;;;;;;;9.20;7.83;;;7.40;99.90;;;;;;6249589;28;20474;-64
2021/11/03 00:03:38;;;;;;;11.57;7.97;;;7.40;99.90;;;;;;6249815;28;20479;-64
2021/11/03 00:06:44;;;;;;;11.90;10.30;;;7.40;99.90;;;;;;6249799;28;20471;-64
2021/11/03 00:09:48;;;;;;;12.27;10.13;;;7.30;99.90;;;;;;6249637;28;20997;-64
2021/11/03 00:12:52;;;;;;;12.63;9.50;;;7.30;99.90;;;;;;6249558;28;20540;-64
2021/11/03 00:15:57;;;;;;;10.47;9.47;;;7.30;99.90;;;;;;6249666;28;20989;-64
2021/11/03 00:19:00;;;;;;;13.33;9.13;;;7.40;99.90;;;;;;6249998;28;20556;-64
2021/11/03 00:22:03;;;;;;;12.00;10.20;;;7.50;99.90;;;;;;6249769;28;20475;-64
2021/11/03 00:25:09;;;;;;;13.70;10.97;;;7.40;99.90;;;;;;6263047;28;20776;-64
2021/11/03 00:28:13;;;;;;;17.43;11.23;;;7.50;99.90;;;;;;6274365;28;20793;-65
2021/11/03 00:31:16;;;;;;;11.93;9.23;;;7.50;99.90;;;;;;6269949;28;20477;-64
2021/11/03 00:34:19;;;;;;;10.67;9.57;;;7.60;99.90;;;;;;6274888;28;20556;-64
2021/11/03 00:37:22;;;;;;;10.77;8.53;;;7.50;99.90;;;;;;6274124;28;20474;-64
2021/11/03 00:40:27;;;;;;;8.87;7.97;;;7.50;99.90;;;;;;6274230;28;20481;-64
2021/11/03 00:43:30;;;;;;;8.10;6.70;;;7.50;99.90;;;;;;6274946;28;20477;-64
2021/11/03 00:46:34;;;;;;;7.77;7.00;;;7.60;99.90;;;;;;6275031;28;20473;-64
2021/11/03 00:49:37;;;;;;;7.70;6.90;;;7.60;99.90;;;;;;6275336;28;20489;-64
2021/11/03 00:52:40;;;;;;;7.87;6.73;;;7.60;99.90;;;;;;6274849;28;20489;-64
2021/11/03 00:55:45;;;;;;;8.47;6.60;;;7.60;99.90;;;;;;6274886;28;20559;-65
2021/11/03 00:58:48;;;;;;;7.20;6.50;;;7.50;99.90;;;;;;6274928;28;20473;-64
2021/11/03 01:01:51;;;;;;;7.77;6.30;;;7.40;99.90;;;;;;6275103;28;20481;-64
2021/11/03 01:04:54;;;;;;;7.70;6.70;;;7.30;99.90;;;;;;6274925;28;20480;-64
2021/11/03 01:07:57;;;;;;;7.97;6.30;;;7.40;99.90;;;;;;6274741;28;20983;-65
2021/11/03 01:11:02;;;;;;;6.90;6.30;;;7.30;99.90;;;;;;6274902;28;20473;-64
2021/11/03 01:14:12;;;;;;;6.67;5.97;;;7.30;99.90;;;;;;6274681;28;20470;-65
2021/11/03 01:17:15;;;;;;;8.20;6.77;;;7.30;99.90;;;;;;6274828;28;20881;-65
2021/11/03 01:20:18;;;;;;;11.30;7.57;;;7.40;99.90;;;;;;6274560;28;20481;-64
2021/11/03 01:23:23;;;;;;;8.67;6.67;;;7.40;99.90;;;;;;6274488;28;20473;-64
2021/11/03 01:26:27;;;;;;;9.97;7.03;;;7.30;99.90;;;;;;6273962;28;20474;-64
2021/11/03 01:29:30;;;;;;;7.70;6.63;;;7.40;99.90;;;;;;6274518;28;20478;-65
2021/11/03 01:32:33;;;;;;;13.27;8.20;;;7.30;99.90;;;;;;6274248;28;20485;-65
2021/11/03 01:35:38;;;;;;;13.70;7.10;;;7.30;99.90;;;;;;6274188;28;20474;-65
2021/11/03 01:38:41;;;;;;;13.30;6.80;;;7.30;99.90;;;;;;6275063;28;20824;-65
2021/11/03 01:41:45;;;;;;;8.10;7.30;;;7.30;99.90;;;;;;6275994;28;20474;-65
2021/11/03 01:44:49;;;;;;;12.07;8.40;;;7.30;99.90;;;;;;6274402;28;20481;-65
2021/11/03 01:47:54;;;;;;;12.03;9.50;;;7.30;99.90;;;;;;6274740;28;20489;-65
2021/11/03 01:50:58;;;;;;;10.23;9.07;;;7.30;99.90;;;;;;6274764;28;20814;-65
2021/11/03 01:54:04;;;;;;;12.70;10.23;;;7.30;99.90;;;;;;6278792;28;20477;-65
2021/11/03 01:57:12;;;;;;;12.43;11.20;;;7.20;99.90;;;;;;6278656;28;20957;-65
2021/11/03 02:00:20;;;;;;;10.63;9.60;;;7.20;99.90;;;;;;6278796;28;20797;-65
2021/11/03 02:03:28;;;;;;;8.73;7.87;;;7.20;99.90;;;;;;6279195;28;20465;-65
2021/11/03 02:06:32;;;;;;;8.27;7.37;;;7.20;99.90;;;;;;6279070;28;20466;-65
2021/11/03 02:09:35;;;;;;;8.73;6.20;;;7.10;99.90;;;;;;6279100;28;20500;-65
2021/11/03 02:12:40;;;;;;;7.60;6.20;;;7.10;99.90;;;;;;6279873;28;20465;-65
2021/11/03 02:15:44;;;;;;;8.07;6.77;;;7.10;99.90;;;;;;6279662;28;20474;-65
2021/11/03 02:18:48;;;;;;;7.23;6.40;;;7.10;99.90;;;;;;6278819;28;20476;-66
2021/11/03 02:21:58;;;;;;;7.60;6.30;;;7.00;99.90;;;;;;6279019;28;20462;-65
2021/11/03 02:25:07;;;;;;;10.33;7.27;;;7.00;99.90;;;;;;6278223;28;20783;-65
2021/11/03 02:28:11;;;;;;;6.13;5.60;;;6.90;99.90;;;;;;6278165;28;20481;-65
2021/11/03 02:31:29;;;;;;;11.23;10.10;;;6.90;99.90;;;;;;6278781;28;20461;-65
2021/11/03 02:34:33;;;;;;;8.07;7.27;;;6.80;99.90;;;;;;6278781;28;20474;-65
2021/11/03 02:37:42;;;;;;;8.13;7.03;;;6.90;99.90;;;;;;6277978;28;20471;-65
2021/11/03 02:40:49;;;;;;;7.20;6.50;;;6.80;99.90;;;;;;6273732;28;20930;-65
2021/11/03 02:43:58;;;;;;;9.80;7.63;;;6.60;99.90;;;;;;6278036;28;20470;-65
2021/11/03 02:47:02;;;;;;;7.43;6.73;;;6.40;99.90;;;;;;6278033;28;20478;-65
2021/11/03 02:50:09;;;;;;;16.47;7.10;;;6.30;99.90;;;;;;6277504;28;20478;-65
2021/11/03 02:53:12;;;;;;;8.20;7.50;;;6.30;99.90;;;;;;6277453;28;20462;-65
2021/11/03 02:56:20;;;;;;;15.30;8.23;;;6.20;99.90;;;;;;6276940;28;20974;-65
2021/11/03 02:59:26;;;;;;;7.50;6.80;;;6.10;99.90;;;;;;6277174;28;20481;-65
2021/11/03 03:02:29;;;;;;;7.20;6.50;;;6.00;99.90;;;;;;6276320;28;21013;-65
2021/11/03 03:05:33;;;;;;;12.83;7.43;;;6.00;99.90;;;;;;6277189;28;20965;-65
2021/11/03 03:08:36;;;;;;;8.93;7.07;;;6.10;99.90;;;;;;6276750;28;20466;-65
2021/11/03 03:11:46;;;;;;;8.70;7.57;;;6.10;99.90;;;;;;6276941;28;20478;-65
2021/11/03 03:14:51;;;;;;;8.57;7.13;;;6.20;99.90;;;;;;6276588;28;20816;-65
2021/11/03 03:17:54;;;;;;;8.43;7.73;;;6.20;99.90;;;;;;6276994;28;20489;-65
2021/11/03 03:21:00;;;;;;;10.00;7.70;;;6.30;99.90;;;;;;6276730;28;20956;-65
2021/11/03 03:24:16;;;;;;;8.03;7.23;;;6.40;99.90;;;;;;6277203;28;20454;-65
2021/11/03 03:27:20;;;;;;;8.00;7.13;;;6.40;99.90;;;;;;6276916;28;20472;-65
2021/11/03 03:30:24;;;;;;;8.13;7.33;;;6.50;99.90;;;;;;6276796;28;20489;-65
2021/11/03 03:33:27;;;;;;;6.77;6.10;;;6.50;99.90;;;;;;6276975;28;20470;-65
2021/11/03 03:36:30;;;;;;;12.20;6.60;;;6.50;99.90;;;;;;6276497;28;20474;-65
2021/11/03 03:39:34;;;;;;;7.13;6.43;;;6.50;99.90;;;;;;6276225;28;20481;-65
2021/11/03 03:42:38;;;;;;;6.83;5.90;;;6.50;99.90;;;;;;6276683;28;20462;-63
2021/11/03 03:45:41;;;;;;;7.03;6.43;;;6.60;99.90;;;;;;6276318;28;20892;-63
2021/11/03 03:48:44;;;;;;;6.33;5.70;;;6.70;99.90;;;;;;6275983;28;20969;-64
2021/11/03 03:51:48;;;;;;;6.50;5.90;;;6.70;99.90;;;;;;6276256;28;20474;-64
2021/11/03 03:54:51;;;;;;;6.40;5.70;;;6.80;99.90;;;;;;6276418;28;20477;-63
2021/11/03 03:57:56;;;;;;;10.73;6.83;;;6.90;99.90;;;;;;6276235;28;20474;-63
2021/11/03 04:00:59;;;;;;;7.97;7.27;;;6.90;99.90;;;;;;6275915;28;20981;-64
2021/11/03 04:04:02;;;;;;;7.90;7.20;;;6.90;99.90;;;;;;6275783;28;20478;-63
2021/11/03 04:07:06;;;;;;;8.40;6.23;;;7.00;99.90;;;;;;6275769;28;20778;-64
2021/11/03 04:10:10;;;;;;;9.10;8.20;;;7.10;99.90;;;;;;6276109;28;20477;-63
2021/11/03 04:13:15;;;;;;;19.40;12.30;;;7.10;99.90;;;;;;6274962;28;20520;-63
2021/11/03 04:16:19;;;;;;;19.03;11.60;;;7.10;99.90;;;;;;6275547;28;20481;-64
2021/11/03 04:19:22;;;;;;;43.37;10.57;;;7.10;99.90;;;;;;6275266;28;21000;-64
2021/11/03 04:22:27;;;;;;;10.50;8.23;;;7.00;99.90;;;;;;6275885;28;20493;-64
2021/11/03 04:25:31;;;;;;;10.10;7.80;;;7.00;99.90;;;;;;6275434;28;20828;-65
2021/11/03 04:28:35;;;;;;;9.33;7.00;;;7.00;99.90;;;;;;6274943;28;20470;-64
2021/11/03 04:31:38;;;;;;;7.27;6.47;;;7.20;99.90;;;;;;6275268;28;20470;-66
2021/11/03 04:34:41;;;;;;;13.43;8.07;;;7.20;99.90;;;;;;6275296;28;20616;-65
2021/11/03 04:37:45;;;;;;;7.37;6.67;;;7.30;99.90;;;;;;6274839;28;20807;-66
2021/11/03 04:40:48;;;;;;;7.60;6.90;;;7.30;99.90;;;;;;6274463;28;20839;-66
2021/11/03 04:43:53;;;;;;;8.70;7.30;;;7.30;99.90;;;;;;6275298;28;20922;-66
2021/11/03 04:46:56;;;;;;;8.67;7.30;;;7.30;99.90;;;;;;6275184;28;20462;-66
2021/11/03 04:50:01;;;;;;;15.03;7.57;;;7.20;99.90;;;;;;6265841;28;20977;-66
2021/11/03 04:53:05;;;;;;;13.40;7.10;;;7.20;99.90;;;;;;6274849;28;20478;-66
2021/11/03 04:56:10;;;;;;;11.17;8.30;;;7.00;99.90;;;;;;6275097;28;20473;-66
2021/11/03 04:59:15;;;;;;;8.50;7.60;;;6.90;99.90;;;;;;6274822;28;20532;-66
2021/11/03 05:02:18;;;;;;;7.93;7.03;;;6.90;99.90;;;;;;6274972;28;20469;-66
2021/11/03 05:05:23;;;;;;;10.17;7.57;;;6.90;99.90;;;;;;6274517;28;20864;-66
2021/11/03 05:08:26;;;;;;;12.33;8.00;;;6.90;99.90;;;;;;6275329;28;20978;-66
2021/11/03 05:11:29;;;;;;;11.00;8.87;;;7.00;99.90;;;;;;6275437;28;20813;-66
2021/11/03 05:14:35;;;;;;;8.97;7.10;;;7.00;99.90;;;;;;6274639;28;20817;-66
2021/11/03 05:17:39;;;;;;;9.40;6.70;;;7.10;99.90;;;;;;6275170;28;20830;-66
2021/11/03 05:20:42;;;;;;;9.77;8.00;;;7.10;99.90;;;;;;6274808;28;20474;-66
2021/11/03 05:23:45;;;;;;;15.40;7.67;;;7.10;99.90;;;;;;6275331;28;20585;-66
2021/11/03 05:26:49;;;;;;;14.10;8.33;;;7.10;99.90;;;;;;6279180;28;20474;-66
2021/11/03 05:29:53;;;;;;;7.97;7.17;;;7.20;99.90;;;;;;6279453;28;21003;-66
2021/11/03 05:32:57;;;;;;;10.33;7.70;;;7.10;99.90;;;;;;6279393;28;20470;-66
2021/11/03 05:36:01;;;;;;;12.00;8.47;;;7.20;99.90;;;;;;6279291;28;20481;-65
2021/11/03 05:39:07;;;;;;;8.37;7.50;;;7.10;99.90;;;;;;6278968;28;20558;-65
2021/11/03 05:42:11;;;;;;;9.03;7.67;;;7.20;99.90;;;;;;6279070;28;20885;-65
2021/11/03 05:45:16;;;;;;;8.67;7.73;;;7.20;99.90;;;;;;6279003;28;21048;-65
2021/11/03 05:48:22;;;;;;;11.60;7.93;;;7.30;99.90;;;;;;6279144;28;20434;-64
2021/11/03 05:51:25;;;;;;;8.60;7.13;;;7.30;99.90;;;;;;6269466;28;20462;-64
2021/11/03 05:54:30;;;;;;;8.83;7.17;;;7.30;99.90;;;;;;6278951;28;20969;-64
2021/11/03 05:57:36;;;;;;;8.30;7.50;;;7.30;99.90;;;;;;6278917;28;20482;-65
2021/11/03 06:00:41;;;;;;;11.50;8.10;;;7.40;99.90;;;;;;6278834;28;20978;-65
2021/11/03 06:03:44;;;;;;;7.97;7.13;;;7.40;99.90;;;;;;6278732;28;20462;-65
2021/11/03 06:06:47;;;;;;;9.60;8.00;;;7.40;99.90;;;;;;6279082;28;20481;-65
2021/11/03 06:09:50;;;;;;;10.50;8.43;;;7.50;99.90;;;;;;6278820;28;20482;-65
2021/11/03 06:12:53;;;;;;;10.40;7.70;;;7.50;99.90;;;;;;6279516;28;20470;-65
2021/11/03 06:15:59;;;;;;;7.47;6.77;;;7.50;99.90;;;;;;6278931;28;20525;-65
2021/11/03 06:19:02;;;;;;;7.13;6.43;;;7.70;99.90;;;;;;6278777;28;20472;-64
2021/11/03 06:22:05;;;;;;;8.73;7.50;;;7.60;99.90;;;;;;6278934;28;20477;-65
2021/11/03 06:25:12;;;;;;;7.83;7.03;;;7.60;99.90;;;;;;6278444;28;20527;-65
2021/11/03 06:28:15;;;;;;;7.40;6.50;;;7.70;99.90;;;;;;6278159;28;20481;-65
2021/11/03 06:31:20;;;;;;;7.33;6.43;;;7.70;99.90;;;;;;6278434;28;20470;-65
2021/11/03 06:34:27;;;;;;;9.03;6.87;;;7.80;99.90;;;;;;6277998;28;20996;-65
2021/11/03 06:37:30;;;;;;;11.57;7.60;;;7.90;99.90;;;;;;6277171;28;20482;-65
2021/11/03 06:40:35;;;;;;;11.80;8.43;;;7.90;99.90;;;;;;6277852;28;20488;-65
2021/11/03 06:43:39;;;;;;;8.57;7.67;;;8.00;99.90;;;;;;6277550;28;20473;-65
2021/11/03 06:46:44;;;;;;;9.20;7.50;;;8.10;99.90;;;;;;6277868;28;20473;-65
2021/11/03 06:49:47;;;;;;;8.73;6.67;;;8.20;99.90;;;;;;6277484;28;20474;-65
2021/11/03 06:52:52;;;;;;;10.20;8.20;;;8.20;99.90;;;;;;6277613;28;20536;-67
2021/11/03 06:55:56;;;;;;;9.00;7.63;;;8.30;99.90;;;;;;6277368;28;20804;-66
2021/11/03 06:58:59;;;;;;;11.10;7.47;;;8.30;99.90;;;;;;6277544;28;20478;-67
2021/11/03 07:02:04;;;;;;;7.53;6.70;;;8.50;99.90;;;;;;6277431;28;20815;-66
2021/11/03 07:05:08;;;;;;;9.27;8.30;;;8.70;99.90;;;;;;6277336;28;20474;-66
2021/11/03 07:08:12;;;;;;;9.27;6.90;;;9.00;99.90;;;;;;6277702;28;20470;-66
2021/11/03 07:11:15;;;;;;;10.47;7.37;;;9.40;99.90;;;;;;6276977;28;20985;-66
2021/11/03 07:14:18;;;;;;;8.10;7.23;;;9.70;99.90;;;;;;6277105;28;20481;-66
2021/11/03 07:17:23;;;;;;;8.50;7.47;;;9.80;99.90;;;;;;6276959;28;20482;-65
2021/11/03 07:20:27;;;;;;;7.93;7.13;;;9.60;99.90;;;;;;6276855;28;20477;-66
2021/11/03 07:23:30;;;;;;;7.53;6.83;;;9.40;99.90;;;;;;6277207;28;20481;-65
2021/11/03 07:26:33;;;;;;;8.40;7.07;;;9.40;99.90;;;;;;6278961;28;20540;-65
2021/11/03 07:29:39;;;;;;;9.60;7.00;;;9.60;99.90;;;;;;6277458;28;20466;-66
2021/11/03 07:32:44;;;;;;;8.30;6.50;;;9.80;99.90;;;;;;6277334;28;20481;-67
2021/11/03 07:35:47;;;;;;;7.23;6.53;;;10.10;99.90;;;;;;6277049;28;20485;-65
2021/11/03 07:38:51;;;;;;;7.67;6.90;;;10.30;99.90;;;;;;6277077;28;20489;-66
2021/11/03 07:42:08;;;;;;;7.07;6.37;;;10.60;99.90;;;;;;6275846;28;20464;-66
2021/11/03 07:45:12;;;;;;;8.30;7.50;;;10.70;99.90;;;;;;6252179;28;20450;-65
2021/11/03 07:48:17;;;;;;;6.93;6.23;;;10.80;99.90;;;;;;6251802;28;20427;-66
2021/11/03 07:51:21;;;;;;;7.77;6.60;;;10.90;99.90;;;;;;6251642;28;20477;-65
2021/11/03 07:54:25;;;;;;;12.03;8.10;;;11.00;99.90;;;;;;6252115;28;20455;-66
2021/11/03 07:57:28;;;;;;;9.90;7.57;;;11.10;99.90;;;;;;6252468;28;20455;-67
2021/11/03 08:00:33;;;;;;;11.23;9.37;;;11.20;99.90;;;;;;6251622;28;20471;-66
2021/11/03 08:03:38;;;;;;;9.53;8.47;;;11.20;99.90;;;;;;6251443;28;21082;-66
2021/11/03 08:06:42;;;;;;;8.67;7.87;;;11.20;99.90;;;;;;6251256;28;20945;-67
2021/11/03 08:09:46;;;;;;;10.00;8.87;;;11.10;99.90;;;;;;6251578;28;20474;-66
2021/11/03 08:12:51;;;;;;;9.10;8.20;;;11.40;99.90;;;;;;6252147;28;20467;-66
2021/11/03 08:15:57;;;;;;;9.90;8.70;;;11.70;99.60;;;;;;6251574;28;20467;-66
2021/11/03 08:19:03;;;;;;;10.67;9.63;;;11.70;99.30;;;;;;6251047;28;20911;-66
2021/11/03 08:22:07;;;;;;;13.13;9.13;;;11.80;99.50;;;;;;6251397;28;20475;-67
2021/11/03 08:25:10;;;;;;;9.47;8.57;;;11.80;99.30;;;;;;6251372;28;20478;-67
2021/11/03 08:28:14;;;;;;;8.37;7.57;;;12.00;99.50;;;;;;6250503;28;20475;-67
2021/11/03 08:31:18;;;;;;;8.87;7.97;;;12.10;98.30;;;;;;6250496;28;20967;-67
2021/11/03 08:47:52;;;;;;;11.17;10.10;;;12.10;98.10;;;;;;6372260;27;20326;-65
2021/11/03 08:50:56;;;;;;;11.03;10.00;;;11.60;98.10;;;;;;6371788;27;20447;-64
2021/11/03 08:54:01;;;;;;;12.10;11.00;;;11.60;98.40;;;;;;6371998;28;20442;-65
2021/11/03 08:57:04;;;;;;;11.73;10.43;;;11.70;98.70;;;;;;6371322;27;20535;-65
2021/11/03 09:00:10;;;;;;;11.57;10.37;;;11.90;98.40;;;;;;6371964;27;20757;-65
2021/11/03 09:03:15;;;;;;;10.80;9.70;;;11.80;97.80;;;;;;6371916;27;20430;-64
2021/11/03 09:06:19;;;;;;;12.03;10.90;;;11.90;98.10;;;;;;6371558;27;20458;-67
2021/11/03 09:09:22;;;;;;;11.10;10.00;;;12.00;98.00;;;;;;6371745;28;20443;-67
2021/11/03 09:12:27;;;;;;;14.13;11.07;;;12.10;97.70;;;;;;6351518;28;20440;-65
2021/11/03 09:22:44;;;;;;;10.57;9.47;;;12.50;96.70;;;;;;6277190;28;20589;-64
2021/11/03 09:25:48;;;;;;;11.10;10.00;;;12.40;96.80;;;;;;6224084;28;20473;-64
2021/11/03 09:28:52;;;;;;;10.90;9.80;;;12.10;97.30;;;;;;6196466;28;20863;-65
2021/11/03 09:31:55;;;;;;;9.80;8.90;;;11.80;97.90;;;;;;6196612;28;20826;-66
2021/11/03 09:34:59;;;;;;;10.70;9.70;;;11.70;98.20;;;;;;6196481;28;20473;-65
2021/11/03 09:38:05;;;;;;;9.70;8.80;;;11.60;98.60;;;;;;6196413;28;20476;-65
2021/11/03 09:41:17;;;;;;;11.80;10.57;;;11.60;98.60;;;;;;6196528;28;20485;-66
2021/11/03 09:44:23;;;;;;;11.80;10.60;;;11.50;98.70;;;;;;6196551;28;20789;-67
2021/11/03 09:47:30;;;;;;;13.03;11.80;;;11.30;99.50;;;;;;6196257;28;20931;-64
2021/11/03 09:50:36;;;;;;;13.73;11.50;;;11.50;99.50;;;;;;6201417;28;20834;-65
2021/11/03 09:53:45;;;;;;;13.67;12.17;;;11.60;99.00;;;;;;6246039;28;20546;-67
2021/11/03 09:56:56;;;;;;;11.70;10.60;;;11.80;99.20;;;;;;6227600;28;20476;-65
2021/11/03 10:00:08;;;;;;;11.03;9.90;;;13.50;98.40;;;;;;6197704;28;20480;-64
2021/11/03 10:03:29;;;;;;;11.30;10.30;;;15.80;94.50;;;;;;6207450;28;20479;-65
2021/11/03 10:06:46;;;;;;;10.80;9.80;;;17.00;89.90;;;;;;6222728;28;20488;-65
2021/11/03 10:09:50;;;;;;;9.03;8.33;;;16.30;87.70;;;;;;6221498;28;20816;-65
2021/11/03 10:12:53;;;;;;;11.40;9.80;;;17.00;88.20;;;;;;6221138;28;20526;-65
2021/11/03 10:15:59;;;;;;;10.50;9.57;;;17.40;82.40;;;;;;6222111;28;20482;-64
2021/11/03 10:19:07;;;;;;;12.33;10.50;;;16.50;83.40;;;;;;6223714;28;20468;-66
2021/11/03 10:22:28;;;;;;;10.87;9.80;;;16.70;86.50;;;;;;6221002;28;20975;-66
2021/11/03 10:25:32;;;;;;;10.67;9.67;;;18.10;82.70;;;;;;6220905;28;20476;-65
2021/11/03 10:28:40;;;;;;;11.10;10.10;;;19.90;75.10;;;;;;6221424;28;20479;-68
2021/11/03 10:31:47;;;;;;;10.23;9.23;;;21.60;66.90;;;;;;6217079;28;20237;-68
2021/11/03 10:34:59;;;;;;;10.07;9.13;;;23.00;59.60;;;;;;6204655;28;20233;-67
2021/11/03 10:38:09;;;;;;;11.30;10.10;;;24.60;53.20;;;;;;6204383;28;20237;-66
2021/11/03 10:41:22;;;;;;;10.47;9.60;;;24.00;52.30;;;;;;6204547;28;20238;-67
2021/11/03 10:44:30;;;;;;;10.80;9.80;;;26.60;47.40;;;;;;6180466;28;20230;-66
2021/11/03 10:47:33;;;;;;;10.93;9.93;;;25.40;46.10;;;;;;6185675;28;20241;-66
2021/11/03 10:50:40;;;;;;;10.83;9.93;;;23.90;48.90;;;;;;6229107;28;20237;-66
2021/11/03 10:53:51;;;;;;;11.30;10.20;;;23.20;50.10;;;;;;6228880;28;20239;-65
2021/11/03 10:56:58;;;;;;;11.50;10.40;;;23.70;49.70;;;;;;6201169;28;20226;-66
2021/11/03 11:00:18;;;;;;;11.00;10.10;;;23.90;49.30;;;;;;6179846;28;20230;-64
2021/11/03 11:03:26;;;;;;;10.23;9.33;;;23.70;48.60;;;;;;6203131;28;20241;-65
2021/11/03 11:06:35;;;;;;;9.83;9.10;;;23.10;49.60;;;;;;6228419;28;20233;-67
2021/11/03 11:09:43;;;;;;;9.30;8.40;;;24.00;49.20;;;;;;6228877;28;20240;-66
2021/11/03 11:12:50;;;;;;;7.80;7.10;;;24.80;47.00;;;;;;6228174;28;20244;-67
2021/11/03 11:16:00;;;;;;;8.47;7.67;;;24.20;47.50;;;;;;6227681;28;20680;-67
2021/11/03 11:19:16;;;;;;;10.13;9.23;;;23.60;48.30;;;;;;6208679;28;20287;-66
2021/11/03 11:22:35;;;;;;;9.03;8.23;;;23.00;49.40;;;;;;6203101;28;20229;-68
2021/11/03 11:25:46;;;;;;;8.67;7.97;;;24.10;49.60;;;;;;6203433;28;20237;-68
2021/11/03 11:28:59;;;;;;;9.30;8.50;;;27.10;44.70;;;;;;6203621;28;20247;-65
2021/11/03 11:32:05;;;;;;;8.73;7.93;;;30.10;40.10;;;;;;6203677;28;20287;-69
2021/11/03 11:35:18;;;;;;;7.38;6.80;;;32.10;35.80;;;;;;6201935;28;20232;-68
2021/11/03 11:38:43;;;;;;;7.93;7.15;;;33.70;32.00;;;;;;6190738;28;20217;-68
2021/11/03 11:41:56;;;;;;;8.52;7.82;;;35.00;30.70;;;;;;6202876;28;20285;-67
2021/11/03 11:45:07;;;;;;;7.32;6.72;;;35.10;28.40;;;;;;6201449;28;20236;-68
2021/11/03 11:48:22;;;;;;;7.82;7.22;;;33.10;29.90;;;;;;6203040;28;20248;-69
2021/11/03 11:51:29;;;;;;;7.65;6.78;;;33.10;30.00;;;;;;6202826;28;20665;-68
2021/11/03 11:54:38;;;;;;;8.35;7.70;;;32.40;30.30;;;;;;6202523;28;20721;-68
2021/11/03 11:57:42;;;;;;;6.80;6.30;;;30.30;32.40;;;;;;6201513;28;20229;-68
2021/11/03 12:01:28;;;;;;;7.40;6.80;;;29.10;34.50;;;;;;6202577;28;20229;-68
2021/11/03 12:04:39;;;;;;;7.50;6.87;;;27.00;38.00;;;;;;6202042;28;20295;-67
2021/11/03 12:07:43;;;;;;;7.03;6.40;;;24.70;41.30;;;;;;6202232;28;20244;-68
2021/11/03 12:11:21;;;;;;;7.17;6.67;;;22.70;44.90;;;;;;6201802;28;20225;-68
2021/11/03 12:14:39;;;;;;;6.77;6.17;;;20.30;50.30;;;;;;6202410;28;20413;-67
2021/11/03 12:17:59;;;;;;;6.63;5.83;;;19.10;54.20;;;;;;6202197;28;20234;-67
2021/11/03 12:21:12;;;;;;;6.17;5.57;;;19.20;55.10;;;;;;6201490;28;20237;-67
2021/11/03 12:24:38;;;;;;;5.87;5.30;;;20.00;55.70;;;;;;6203348;28;20234;-68
2021/11/03 12:27:42;;;;;;;5.33;4.93;;;21.00;52.50;;;;;;6202711;28;20234;-68
2021/11/03 12:30:47;;;;;;;9.23;5.17;;;21.20;52.80;;;;;;6201953;28;20242;-68
2021/11/03 12:34:27;;;;;;;6.60;6.00;;;22.00;51.80;;;;;;6201730;28;20241;-68
2021/11/03 12:37:34;;;;;;;5.70;5.20;;;24.00;49.00;;;;;;6200914;28;20677;-68
2021/11/03 12:40:40;;;;;;;6.50;5.57;;;24.80;45.70;;;;;;6201458;28;20249;-68
2021/11/03 12:43:49;;;;;;;7.20;6.60;;;23.30;47.40;;;;;;6201330;28;20237;-68
2021/11/03 12:46:52;;;;;;;8.20;7.40;;;21.80;50.10;;;;;;6201417;28;20237;-67
2021/11/03 12:50:09;;;;;;;8.53;7.73;;;20.30;53.70;;;;;;6201570;28;20229;-66
2021/11/03 12:53:17;;;;;;;8.67;7.70;;;18.20;59.50;;;;;;6201536;28;20285;-65
2021/11/03 12:56:23;;;;;;;8.87;7.97;;;16.20;68.20;;;;;;6200769;28;20924;-65
2021/11/03 12:59:29;;;;;;;9.07;8.17;;;15.40;73.70;;;;;;6201535;28;20437;-66
2021/11/03 13:02:36;;;;;;;9.50;8.50;;;14.90;79.10;;;;;;6201492;28;20465;-66
2021/11/03 13:05:48;;;;;;;10.37;8.37;;;14.50;84.40;;;;;;6200810;28;20474;-68
2021/11/03 13:08:51;;;;;;;9.80;8.80;;;14.00;89.20;;;;;;6201057;28;20485;-68
2021/11/03 13:11:54;;;;;;;10.57;9.57;;;13.80;91.40;;;;;;6201301;28;20468;-66
2021/11/03 13:15:00;;;;;;;10.67;9.47;;;13.60;92.80;;;;;;6200637;28;20491;-64
2021/11/03 13:18:16;;;;;;;10.87;9.60;;;13.30;94.40;;;;;;6203402;28;20468;-65
2021/11/03 13:21:27;;;;;;;10.40;9.27;;;13.20;95.60;;;;;;6201195;28;20469;-64
2021/11/03 13:24:36;;;;;;;15.07;9.13;;;13.10;96.60;;;;;;6200613;28;20619;-65
2021/11/03 13:27:40;;;;;;;10.23;8.77;;;13.10;97.60;;;;;;6200572;28;20484;-64
2021/11/03 13:30:43;;;;;;;13.40;9.50;;;12.90;98.00;;;;;;6200377;28;20904;-65
2021/11/03 13:34:01;;;;;;;13.23;10.70;;;12.80;98.60;;;;;;6200794;28;20484;-65
2021/11/03 13:37:17;;;;;;;11.73;10.40;;;12.70;99.20;;;;;;6200542;28;20491;-65
2021/11/03 13:40:26;;;;;;;9.20;8.30;;;12.70;99.70;;;;;;6200502;28;20797;-65
2021/11/03 13:43:30;;;;;;;12.40;10.00;;;12.70;99.90;;;;;;6200329;28;20864;-65
2021/11/03 13:46:37;;;;;;;12.40;11.10;;;12.70;99.90;;;;;;6200498;28;20468;-64
2021/11/03 13:49:43;;;;;;;13.47;9.40;;;12.70;99.90;;;;;;6200316;28;20552;-67
2021/11/03 13:53:13;;;;;;;13.80;9.57;;;12.60;99.90;;;;;;6198821;28;20469;-67
2021/11/03 13:56:17;;;;;;;13.07;9.83;;;12.60;99.90;;;;;;6174553;28;20457;-69
2021/11/03 13:59:24;;;;;;;14.70;11.57;;;12.60;99.90;;;;;;6174670;28;20449;-67
2021/11/03 14:02:35;;;;;;;12.80;11.30;;;12.60;99.90;;;;;;6175365;28;20481;-66
2021/11/03 14:05:46;;;;;;;15.93;11.43;;;12.60;99.90;;;;;;6182744;28;20480;-67
2021/11/03 14:08:52;;;;;;;12.87;10.67;;;12.50;99.90;;;;;;6189127;28;21180;-70
2021/11/03 14:11:58;;;;;;;13.00;11.27;;;12.40;99.90;;;;;;6180316;28;20481;-70
2021/11/03 14:15:02;;;;;;;14.37;12.13;;;12.40;99.90;;;;;;6186179;28;20468;-69
2021/11/03 14:18:10;;;;;;;15.10;12.73;;;12.50;99.90;;;;;;6202841;28;20481;-68
2021/11/03 14:21:13;;;;;;;14.20;12.03;;;12.40;99.90;;;;;;6204512;28;20487;-67
2021/11/03 14:24:18;;;;;;;13.80;11.50;;;12.30;99.90;;;;;;6204992;28;20491;-67
2021/11/03 14:27:23;;;;;;;14.83;11.93;;;12.20;99.90;;;;;;6205124;28;20481;-67
2021/11/03 14:30:29;;;;;;;16.10;12.60;;;12.20;99.90;;;;;;6205078;28;20472;-66
2021/11/03 14:33:36;;;;;;;17.67;12.77;;;12.20;99.90;;;;;;6205132;28;20476;-68
2021/11/03 14:36:40;;;;;;;15.93;12.63;;;12.20;99.90;;;;;;6204816;28;20487;-66
2021/11/03 14:39:48;;;;;;;14.80;11.90;;;12.20;99.90;;;;;;6193523;28;20474;-65
2021/11/03 14:42:52;;;;;;;12.33;11.07;;;12.30;99.90;;;;;;6182675;28;20643;-65
2021/11/03 14:45:56;;;;;;;13.43;11.13;;;12.30;99.90;;;;;;6181133;28;20477;-65
2021/11/03 14:49:04;;;;;;;13.10;11.37;;;12.40;99.90;;;;;;6182677;28;20469;-64
2021/11/03 14:52:13;;;;;;;17.23;14.10;;;12.30;99.90;;;;;;6180106;28;20973;-64
2021/11/03 14:55:27;;;;;;;15.50;10.83;;;12.30;99.90;;;;;;6194641;28;20967;-65
2021/11/03 14:58:30;;;;;;;14.30;10.93;;;12.30;99.90;;;;;;6204285;28;20499;-64
2021/11/03 15:01:36;;;;;;;18.43;11.90;;;12.30;99.90;;;;;;6203799;28;20488;-64
2021/11/03 15:04:40;;;;;;;12.80;11.43;;;12.20;99.90;;;;;;6203728;28;20994;-64
2021/11/03 15:07:43;;;;;;;13.23;11.83;;;12.10;99.90;;;;;;6203637;28;20988;-66
2021/11/03 15:10:49;;;;;;;14.67;11.50;;;12.10;99.90;;;;;;6203588;28;20499;-67
2021/11/03 15:13:54;;;;;;;13.83;12.30;;;12.10;99.90;;;;;;6203361;28;20475;-65
2021/11/03 15:17:00;;;;;;;15.00;12.00;;;12.10;99.90;;;;;;6203504;28;20477;-64
2021/11/03 15:20:13;;;;;;;13.60;12.20;;;12.10;99.90;;;;;;6202776;28;20819;-65
2021/11/03 15:23:18;;;;;;;12.10;10.83;;;12.10;99.90;;;;;;6179055;28;20818;-64
2021/11/03 15:26:24;;;;;;;11.97;10.77;;;12.10;99.90;;;;;;6179121;28;20504;-66
2021/11/03 15:29:28;;;;;;;15.80;12.90;;;12.10;99.90;;;;;;6179448;28;20781;-67
2021/11/03 15:32:36;;;;;;;15.70;11.90;;;12.20;99.90;;;;;;6179520;28;20457;-67
2021/11/03 15:35:39;;;;;;;14.13;12.73;;;12.10;99.90;;;;;;6178998;28;20473;-67
2021/11/03 15:38:50;;;;;;;14.40;12.17;;;12.10;99.90;;;;;;6179124;28;20473;-66
2021/11/03 15:41:57;;;;;;;13.97;11.23;;;12.10;99.90;;;;;;6178973;28;20469;-66
2021/11/03 15:45:02;;;;;;;15.43;12.00;;;12.20;99.90;;;;;;6191308;28;20476;-67
2021/11/03 15:48:12;;;;;;;14.10;11.50;;;12.20;99.90;;;;;;6202836;28;20488;-67
2021/11/03 15:51:16;;;;;;;14.63;12.20;;;12.20;99.90;;;;;;6203457;28;20477;-66
2021/11/03 15:54:21;;;;;;;14.27;12.60;;;12.20;99.90;;;;;;6201250;28;20819;-65
2021/11/03 15:57:25;;;;;;;14.83;13.23;;;12.20;99.90;;;;;;6202525;28;20477;-65
2021/11/03 16:00:31;;;;;;;14.67;12.27;;;12.20;99.90;;;;;;6202329;28;20483;-67
2021/11/03 16:03:41;;;;;;;16.93;12.30;;;12.20;99.90;;;;;;6202579;28;20556;-65
2021/11/03 16:07:00;;;;;;;13.20;11.80;;;12.20;99.90;;;;;;6202568;28;20790;-65
2021/11/03 16:10:03;;;;;;;15.23;12.53;;;12.20;99.90;;;;;;6202475;28;20469;-65
2021/11/03 16:13:10;;;;;;;16.40;14.20;;;12.10;99.90;;;;;;6202705;28;20464;-65
2021/11/03 16:16:14;;;;;;;18.13;12.47;;;12.00;99.90;;;;;;6202622;28;20481;-64
2021/11/03 16:19:18;;;;;;;15.23;13.73;;;12.10;99.90;;;;;;6204355;28;20484;-66
2021/11/03 16:22:27;;;;;;;15.17;13.67;;;12.10;99.90;;;;;;6202654;28;20476;-65
2021/11/03 16:25:36;;;;;;;14.20;12.80;;;12.10;99.90;;;;;;6201636;28;20484;-66